< < Back
Terminal Aerodrome Forecast


Current Version              Previous Versions:   1  2  3  4  5  6  7  8  9  

Terminal Aerodrome Forecast

899
FTUS42 KCAE 230800 AAB
TAFCAE
TAF AMD
KCAE 230854Z 2309/2406 VRB03KT 1 1/2SM BR SKC
      TEMPO 2309/2312 1/2SM FG
     FM231300 36010KT P6SM SKC=



Latest METAR

382
SAUS80 KWBC 231900
MTRCAE
METAR KCAE 231856Z 32009G16KT 10SM CLR 27/04 A2984 RMK AO2 SLP103
T02670044


USA.gov is the U.S. government's official web portal to all federal, state and local government web resources and services.